Time;durP1;ratioP1;P1;durP2;ratioP2;P2;SDS_P1;SDS_P2;PMS_P1;PMS_P2;Temp;Humidity;BMP_temperature;BMP_pressure;BME280_temperature;BME280_humidity;BME280_pressure;Samples;Min_cycle;Max_cycle;Signal;HPM_P1;HPM_P2
2023/11/16 00:01:28;;;;;;;10.23;3.38;;;;;;;7.16;93.82;100230.91;10476581;28;20295;-77
2023/11/16 00:06:32;;;;;;;10.25;4.50;;;;;;;7.12;92.59;100212.53;10484456;28;20044;-77
2023/11/16 00:11:35;;;;;;;12.48;4.40;;;;;;;7.13;93.41;100219.56;10479514;28;20579;-77
2023/11/16 00:16:41;;;;;;;15.00;4.97;;;;;;;7.07;93.83;100220.84;10472879;28;20496;-77
2023/11/16 00:21:44;;;;;;;6.55;3.67;;;;;;;6.93;93.12;100216.47;10476575;28;20049;-76
2023/11/16 00:26:50;;;;;;;11.45;4.38;;;;;;;7.03;93.76;100217.53;10476219;28;20043;-77
2023/11/16 00:31:55;;;;;;;9.50;4.40;;;;;;;7.17;91.92;100229.09;10477719;28;20049;-76
2023/11/16 00:36:58;;;;;;;11.43;4.22;;;;;;;7.00;92.88;100222.25;10469872;28;20044;-77
2023/11/16 00:42:01;;;;;;;12.00;4.32;;;;;;;6.80;95.54;100229.78;10479574;28;20048;-76
2023/11/16 00:47:06;;;;;;;9.35;4.80;;;;;;;6.77;93.71;100229.09;10480866;28;20036;-76
2023/11/16 00:52:08;;;;;;;10.20;4.55;;;;;;;7.16;91.94;100225.56;10484424;28;20047;-76
2023/11/16 00:57:13;;;;;;;9.57;4.78;;;;;;;6.70;93.73;100201.97;10475812;28;20041;-77
2023/11/16 01:02:18;;;;;;;14.85;4.30;;;;;;;7.03;92.98;100206.00;10475984;28;20119;-76
2023/11/16 01:07:21;;;;;;;13.90;5.10;;;;;;;6.81;92.97;100225.28;10480225;28;20045;-76
2023/11/16 01:12:26;;;;;;;12.07;4.35;;;;;;;6.90;91.77;100202.47;10464712;28;20128;-76
2023/11/16 01:17:36;;;;;;;16.20;5.18;;;;;;;7.12;92.13;100208.03;10469085;28;20056;-76
2023/11/16 01:22:46;;;;;;;10.60;4.88;;;;;;;6.85;93.26;100194.72;10465004;28;20160;-77
2023/11/16 01:27:57;;;;;;;9.93;4.78;;;;;;;6.92;92.77;100208.56;10467470;28;20066;-76
2023/11/16 01:33:03;;;;;;;15.57;4.82;;;;;;;6.90;93.74;100221.16;10477132;28;20504;-76
2023/11/16 01:38:06;;;;;;;14.60;4.53;;;;;;;6.81;94.28;100202.09;10471939;28;20083;-76
2023/11/16 01:43:09;;;;;;;9.20;3.80;;;;;;;6.69;94.85;100237.66;10470580;28;20044;-76
2023/11/16 01:48:22;;;;;;;17.05;5.43;;;;;;;6.86;95.48;100220.50;10481528;28;20510;-77
2023/11/16 01:53:26;;;;;;;8.85;3.58;;;;;;;6.80;93.82;100224.44;10473267;28;20504;-76
2023/11/16 01:58:28;;;;;;;12.57;5.13;;;;;;;6.71;95.89;100214.38;10464572;28;20044;-76
2023/11/16 02:03:33;;;;;;;16.10;5.20;;;;;;;7.09;94.75;100223.44;10474540;28;20056;-76
2023/11/16 02:08:36;;;;;;;23.52;3.95;;;;;;;6.65;97.48;100237.94;10477146;28;20045;-76
2023/11/16 02:13:39;;;;;;;17.67;2.78;;;;;;;6.39;99.98;100222.72;10472878;28;20049;-77
2023/11/16 02:18:43;;;;;;;15.07;4.65;;;;;;;6.49;100.00;100219.44;10474693;28;20052;-76
2023/11/16 02:23:49;;;;;;;15.73;4.63;;;;;;;5.99;100.00;100216.47;10474357;28;20033;-76
2023/11/16 02:28:51;;;;;;;20.02;5.55;;;;;;;6.28;100.00;100217.25;10474951;28;20052;-76
2023/11/16 02:33:54;;;;;;;15.93;4.82;;;;;;;6.32;100.00;100213.41;10471561;28;20085;-76
2023/11/16 02:39:00;;;;;;;18.85;5.43;;;;;;;6.59;100.00;100216.06;10482135;28;20044;-76
2023/11/16 02:44:03;;;;;;;14.82;4.70;;;;;;;6.51;100.00;100218.38;10474537;28;20426;-76
2023/11/16 02:49:07;;;;;;;14.98;5.55;;;;;;;6.53;100.00;100223.63;10480410;28;20058;-77
2023/11/16 02:54:11;;;;;;;13.63;5.50;;;;;;;6.82;100.00;100225.16;10464510;28;20056;-76
2023/11/16 02:59:14;;;;;;;8.65;3.58;;;;;;;6.76;100.00;100222.06;10460824;28;20128;-76
2023/11/16 03:04:17;;;;;;;10.00;3.60;;;;;;;6.63;100.00;100230.03;10477088;28;20124;-76
2023/11/16 03:09:22;;;;;;;16.80;4.38;;;;;;;6.62;100.00;100225.66;10476593;28;20045;-76
2023/11/16 03:14:25;;;;;;;16.65;5.10;;;;;;;6.56;100.00;100226.94;10468767;28;20049;-76
2023/11/16 03:19:27;;;;;;;12.93;5.38;;;;;;;6.74;100.00;100222.16;10478621;28;20451;-76
2023/11/16 03:24:32;;;;;;;15.73;4.68;;;;;;;6.59;100.00;100221.38;10473191;28;20048;-76
2023/11/16 03:29:35;;;;;;;13.32;3.85;;;;;;;6.57;100.00;100222.44;10469815;28;20140;-76
2023/11/16 03:34:37;;;;;;;15.98;6.18;;;;;;;6.51;99.07;100214.84;10467335;28;20052;-76
2023/11/16 03:39:42;;;;;;;13.88;3.97;;;;;;;6.58;97.86;100227.69;10481500;28;20513;-76
2023/11/16 03:44:45;;;;;;;13.40;3.00;;;;;;;6.49;97.86;100214.94;10473611;28;20044;-76
2023/11/16 03:49:47;;;;;;;8.82;2.85;;;;;;;6.53;97.13;100221.81;10464633;28;20564;-77
2023/11/16 03:54:52;;;;;;;11.75;3.35;;;;;;;6.63;97.78;100217.53;10467117;28;20463;-76
2023/11/16 03:59:55;;;;;;;8.38;2.65;;;;;;;6.63;96.74;100212.19;10475858;28;20048;-76
2023/11/16 04:04:59;;;;;;;12.57;3.58;;;;;;;6.56;99.02;100212.75;10465188;28;20072;-77
2023/11/16 04:10:09;;;;;;;14.45;3.97;;;;;;;6.45;99.16;100213.44;10472204;28;20048;-76
2023/11/16 04:15:14;;;;;;;8.90;3.53;;;;;;;6.32;100.00;100218.75;10468092;28;20060;-76
2023/11/16 04:20:19;;;;;;;13.23;3.45;;;;;;;6.73;97.60;100214.28;10468676;28;20047;-76
2023/11/16 04:25:27;;;;;;;12.05;4.15;;;;;;;6.80;97.72;100213.75;10483895;28;20044;-77
2023/11/16 04:30:31;;;;;;;11.75;4.82;;;;;;;6.49;99.97;100222.09;10461774;28;20503;-76
2023/11/16 04:35:34;;;;;;;10.70;4.43;;;;;;;6.58;100.00;100226.81;10478795;28;20056;-76
2023/11/16 04:40:40;;;;;;;10.10;4.63;;;;;;;6.44;100.00;100229.56;10479895;28;20479;-77
2023/11/16 04:45:43;;;;;;;10.20;5.25;;;;;;;6.71;100.00;100216.19;10477195;28;20047;-76
2023/11/16 04:50:46;;;;;;;19.48;5.57;;;;;;;6.59;100.00;100221.38;10469300;28;20056;-76
2023/11/16 04:55:50;;;;;;;7.30;4.47;;;;;;;6.32;100.00;100237.41;10471221;28;20048;-76
2023/11/16 05:00:53;;;;;;;13.50;4.90;;;;;;;6.61;100.00;100230.16;10479242;28;20033;-77
2023/11/16 05:05:56;;;;;;;13.60;4.80;;;;;;;6.77;100.00;100235.28;10469988;28;20104;-77
2023/11/16 05:11:01;;;;;;;14.02;4.88;;;;;;;7.08;96.97;100230.59;10468778;28;20041;-76
2023/11/16 05:16:04;;;;;;;10.90;3.83;;;;;;;6.71;97.96;100242.88;10466827;28;20389;-76
2023/11/16 05:21:08;;;;;;;8.55;3.22;;;;;;;6.60;98.09;100238.25;10473983;28;20040;-76
2023/11/16 05:26:12;;;;;;;15.23;4.13;;;;;;;6.55;99.72;100240.38;10486821;28;20052;-76
2023/11/16 05:31:15;;;;;;;11.02;4.03;;;;;;;6.67;98.40;100236.91;10486538;28;20052;-76
2023/11/16 05:36:19;;;;;;;12.98;3.70;;;;;;;6.71;97.61;100240.19;10477997;28;20047;-76
2023/11/16 05:41:23;;;;;;;9.70;3.78;;;;;;;6.59;98.18;100236.56;10479539;28;20037;-76
2023/11/16 05:46:26;;;;;;;8.80;4.50;;;;;;;6.36;100.00;100244.28;10477027;28;20052;-76
2023/11/16 05:51:33;;;;;;;12.40;3.72;;;;;;;6.45;98.08;100257.97;10476479;28;20072;-76
2023/11/16 05:56:40;;;;;;;7.40;2.95;;;;;;;6.78;94.60;100262.88;10482192;28;20057;-76
2023/11/16 06:01:45;;;;;;;12.07;3.53;;;;;;;6.70;94.71;100257.19;10482532;28;20045;-77
2023/11/16 06:06:48;;;;;;;11.02;3.60;;;;;;;6.54;95.51;100262.69;10476557;28;20049;-76
2023/11/16 06:11:52;;;;;;;10.57;3.40;;;;;;;6.32;96.89;100258.75;10467023;28;20129;-77
2023/11/16 06:16:55;;;;;;;9.20;3.25;;;;;;;6.68;94.67;100259.94;10477069;28;20053;-76
2023/11/16 06:21:58;;;;;;;11.02;2.83;;;;;;;6.52;95.52;100267.25;10475041;28;20209;-76
2023/11/16 06:27:04;;;;;;;14.02;3.78;;;;;;;6.63;93.94;100264.72;10477492;28;20052;-76
2023/11/16 06:32:08;;;;;;;6.85;2.88;;;;;;;6.48;94.12;100265.75;10466164;28;20045;-76
2023/11/16 06:37:10;;;;;;;10.43;2.35;;;;;;;6.16;94.45;100268.72;10482211;28;20134;-77
2023/11/16 06:42:15;;;;;;;8.98;1.90;;;;;;;6.14;92.42;100271.50;10462640;28;20045;-76
2023/11/16 06:47:18;;;;;;;7.50;1.58;;;;;;;6.59;89.70;100268.59;10469612;28;20440;-77
2023/11/16 06:52:20;;;;;;;7.38;1.50;;;;;;;6.32;90.39;100271.25;10476091;28;20051;-76
2023/11/16 06:57:26;;;;;;;7.63;1.35;;;;;;;6.56;88.95;100266.13;10464167;28;20045;-76
2023/11/16 07:02:29;;;;;;;7.97;3.42;;;;;;;6.17;90.52;100273.97;10473132;28;20052;-76
2023/11/16 07:07:32;;;;;;;3.17;0.93;;;;;;;6.26;90.18;100283.16;10475334;28;20076;-76
2023/11/16 07:12:40;;;;;;;6.47;1.35;;;;;;;6.57;88.56;100278.50;10407190;28;20056;-77
2023/11/16 07:17:43;;;;;;;2.55;1.00;;;;;;;6.56;88.29;100284.81;10388670;28;20126;-76
2023/11/16 07:22:46;;;;;;;4.20;1.10;;;;;;;6.46;88.82;100286.34;10397087;28;20063;-77
2023/11/16 07:27:50;;;;;;;4.10;1.10;;;;;;;6.52;88.33;100288.63;10403526;28;20049;-77
2023/11/16 07:32:53;;;;;;;9.88;1.35;;;;;;;6.21;90.18;100285.28;10393520;28;20071;-77
2023/11/16 07:38:00;;;;;;;5.55;1.80;;;;;;;6.39;89.42;100293.91;10392218;28;20053;-76
2023/11/16 07:43:05;;;;;;;11.82;2.13;;;;;;;6.73;90.01;100297.88;10398726;28;20103;-77
2023/11/16 07:48:09;;;;;;;9.63;1.85;;;;;;;7.28;86.77;100285.31;10402268;28;21165;-76
2023/11/16 07:53:12;;;;;;;7.20;2.25;;;;;;;7.71;84.83;100291.19;10389523;28;20046;-76
2023/11/16 07:58:17;;;;;;;9.85;3.15;;;;;;;8.12;81.25;100286.53;10387353;28;20049;-76
2023/11/16 08:08:45;;;;;;;11.00;3.65;;;;;;;7.76;83.26;100281.97;10408383;28;20772;-77
2023/11/16 08:13:50;;;;;;;10.07;3.10;;;;;;;7.08;88.20;100283.16;10401518;28;20749;-77
2023/11/16 08:18:53;;;;;;;10.65;3.88;;;;;;;7.14;90.98;100266.72;10400366;28;20056;-77
2023/11/16 08:23:57;;;;;;;10.02;3.85;;;;;;;7.68;90.63;100274.53;10406611;28;20140;-77
2023/11/16 08:29:05;;;;;;;20.58;4.03;;;;;;;7.34;92.13;100268.00;10411658;28;20083;-77
2023/11/16 08:34:08;;;;;;;11.73;5.20;;;;;;;7.38;89.98;100272.19;10401243;28;20048;-77
2023/11/16 08:39:14;;;;;;;17.45;4.90;;;;;;;8.20;88.80;100260.06;10387696;28;20060;-77
2023/11/16 08:44:19;;;;;;;13.43;4.95;;;;;;;8.96;80.66;100263.38;10409210;28;20493;-77
2023/11/16 08:49:23;;;;;;;11.07;5.20;;;;;;;8.29;82.61;100283.47;10402099;28;21048;-77
2023/11/16 08:54:27;;;;;;;15.88;5.65;;;;;;;8.52;84.19;100273.78;10386121;28;20046;-76
2023/11/16 08:59:35;;;;;;;8.63;5.32;;;;;;;8.50;82.92;100283.75;10377273;28;20259;-77
2023/11/16 09:04:38;;;;;;;10.25;5.13;;;;;;;8.65;82.21;100278.22;10398578;28;20049;-77
2023/11/16 09:09:42;;;;;;;6.30;3.85;;;;;;;9.37;78.14;100276.25;10398995;28;20049;-79
2023/11/16 09:14:46;;;;;;;10.00;3.80;;;;;;;9.70;74.98;100267.38;10403537;28;20652;-79
2023/11/16 09:19:52;;;;;;;6.60;3.00;;;;;;;9.36;75.05;100274.56;10400884;28;20041;-80
2023/11/16 09:24:57;;;;;;;7.93;3.05;;;;;;;9.49;76.18;100261.06;10385738;28;20493;-79
2023/11/16 09:30:04;;;;;;;5.53;2.45;;;;;;;9.52;70.30;100260.81;10397552;28;20053;-80
2023/11/16 09:35:09;;;;;;;6.53;2.30;;;;;;;9.45;72.95;100257.75;10380807;28;20052;-81
2023/11/16 09:40:21;;;;;;;7.93;2.38;;;;;;;10.36;67.05;100232.56;10412927;28;20053;-79
2023/11/16 09:45:28;;;;;;;7.00;1.73;;;;;;;11.13;64.81;100230.66;10399504;28;20049;-81
2023/11/16 09:50:31;;;;;;;10.15;2.17;;;;;;;9.41;69.34;100236.69;10394935;28;20048;-80
2023/11/16 09:55:36;;;;;;;7.30;1.35;;;;;;;9.10;70.71;100239.03;10418401;28;20064;-81
2023/11/16 10:00:44;;;;;;;7.53;1.13;;;;;;;8.47;72.32;100249.16;10400922;28;20447;-79
2023/11/16 10:05:47;;;;;;;11.15;2.28;;;;;;;8.52;73.57;100255.03;10413876;28;20084;-80
2023/11/16 10:10:54;;;;;;;5.28;1.20;;;;;;;8.30;74.51;100254.88;10389093;28;20049;-80
2023/11/16 10:16:03;;;;;;;2.60;1.00;;;;;;;7.72;78.51;100260.81;10391747;28;20651;-79
2023/11/16 10:21:08;;;;;;;6.18;1.30;;;;;;;7.84;78.48;100237.69;10406944;28;20694;-78
2023/11/16 10:26:11;;;;;;;1.92;1.20;;;;;;;7.91;78.88;100227.41;10410692;28;20171;-78
2023/11/16 10:31:17;;;;;;;5.47;1.50;;;;;;;7.92;78.69;100215.72;10396113;28;20530;-80
2023/11/16 10:36:23;;;;;;;6.63;1.40;;;;;;;7.79;78.62;100228.28;10387153;28;20158;-78
2023/11/16 10:41:28;;;;;;;4.35;1.70;;;;;;;7.64;79.85;100216.88;10391958;28;20055;-78
2023/11/16 10:46:33;;;;;;;9.52;1.98;;;;;;;7.57;79.89;100210.25;10390525;28;20045;-79
2023/11/16 10:51:38;;;;;;;7.18;1.55;;;;;;;7.58;80.59;100201.28;10385105;28;20433;-79
2023/11/16 10:56:42;;;;;;;8.18;1.83;;;;;;;7.60;80.92;100194.00;10406914;28;20084;-77
2023/11/16 11:01:48;;;;;;;8.38;2.40;;;;;;;7.92;80.47;100186.31;10407467;28;20048;-81
2023/11/16 11:06:52;;;;;;;8.63;2.42;;;;;;;8.24;79.01;100175.91;10388056;28;20686;-80
2023/11/16 11:12:05;;;;;;;9.00;2.20;;;;;;;8.63;77.68;100170.38;10388949;28;20049;-80
2023/11/16 11:17:10;;;;;;;9.15;1.95;;;;;;;8.88;74.82;100166.66;10394936;28;20408;-79
2023/11/16 11:22:16;;;;;;;6.60;1.85;;;;;;;8.91;71.75;100169.94;10396974;28;20069;-79
2023/11/16 11:27:22;;;;;;;8.30;2.30;;;;;;;9.70;70.55;100160.09;10404090;28;20055;-79
2023/11/16 11:32:36;;;;;;;3.22;2.40;;;;;;;10.37;69.92;100151.06;10413193;28;20310;-80
2023/11/16 11:37:39;;;;;;;6.30;1.83;;;;;;;10.44;65.85;100132.56;10408431;28;20553;-80
2023/11/16 11:42:50;;;;;;;3.17;1.20;;;;;;;10.11;66.19;100130.91;10387617;28;20053;-77
2023/11/16 11:47:56;;;;;;;2.92;1.13;;;;;;;10.09;65.46;100124.78;10414430;28;20490;-78
2023/11/16 11:53:01;;;;;;;4.93;1.30;;;;;;;10.25;65.19;100116.31;10410288;28;20056;-78
2023/11/16 11:58:04;;;;;;;8.05;1.35;;;;;;;10.25;64.71;100095.69;10403136;28;20648;-80
2023/11/16 12:03:11;;;;;;;3.20;1.52;;;;;;;10.54;65.86;100082.47;10420707;28;20139;-79
2023/11/16 12:08:14;;;;;;;4.28;1.15;;;;;;;10.86;65.47;100073.50;10420359;28;21550;-80
2023/11/16 12:13:18;;;;;;;1.92;0.90;;;;;;;10.98;62.95;100074.25;10418138;28;20057;-80
2023/11/16 12:18:23;;;;;;;5.93;1.55;;;;;;;10.90;62.43;100074.06;10408128;28;20041;-80
2023/11/16 12:23:27;;;;;;;2.10;1.42;;;;;;;10.84;62.26;100068.22;10404382;28;21337;-80
2023/11/16 12:28:33;;;;;;;5.95;1.48;;;;;;;10.69;62.17;100072.25;10405897;28;20628;-80
2023/11/16 12:33:37;;;;;;;7.88;1.42;;;;;;;9.74;63.07;100069.53;10385875;28;20057;-78
2023/11/16 12:38:40;;;;;;;3.85;1.73;;;;;;;9.22;65.37;100071.94;10404035;28;20045;-80
2023/11/16 12:43:43;;;;;;;6.45;1.83;;;;;;;9.49;64.97;100074.22;10395541;28;20049;-78
2023/11/16 12:48:48;;;;;;;10.07;2.13;;;;;;;9.62;64.34;100067.84;10394690;28;20040;-79
2023/11/16 12:53:51;;;;;;;6.75;1.35;;;;;;;9.32;64.94;100065.84;10371925;28;20445;-78
2023/11/16 12:58:54;;;;;;;5.15;1.60;;;;;;;9.38;65.40;100049.25;10395546;28;20053;-79
2023/11/16 13:03:58;;;;;;;8.25;1.80;;;;;;;9.45;66.77;100042.41;10401114;28;20068;-78
2023/11/16 13:09:03;;;;;;;3.35;1.40;;;;;;;9.56;66.36;100028.13;10391848;28;20038;-79
2023/11/16 13:14:07;;;;;;;4.85;1.27;;;;;;;9.48;65.35;100026.06;10398039;28;20052;-79
2023/11/16 13:19:11;;;;;;;4.10;1.30;;;;;;;9.42;65.52;100019.38;10401419;28;20176;-79
2023/11/16 13:24:14;;;;;;;7.10;1.42;;;;;;;9.24;67.18;100012.84;10400072;28;20138;-78
2023/11/16 13:29:17;;;;;;;3.15;2.10;;;;;;;9.29;68.98;100005.28;10415037;28;20131;-78
2023/11/16 13:34:21;;;;;;;3.67;1.42;;;;;;;9.21;69.70;99999.69;10407360;28;20049;-79
2023/11/16 13:39:24;;;;;;;5.15;1.27;;;;;;;9.12;70.08;99998.63;10425322;28;20052;-80
2023/11/16 13:44:28;;;;;;;4.60;1.30;;;;;;;9.02;70.73;99990.50;10412095;28;20041;-80
2023/11/16 13:49:33;;;;;;;2.85;1.45;;;;;;;8.92;70.96;99989.53;10422368;28;20492;-78
2023/11/16 13:54:36;;;;;;;4.10;1.75;;;;;;;8.76;70.92;99978.34;10415442;28;20113;-78
2023/11/16 13:59:39;;;;;;;4.88;1.10;;;;;;;8.69;71.25;99977.09;10421967;28;20049;-80
2023/11/16 14:04:43;;;;;;;5.05;1.20;;;;;;;8.62;71.74;99976.75;10421420;28;20051;-78
2023/11/16 14:09:46;;;;;;;3.58;1.25;;;;;;;8.59;71.82;99960.94;10415151;28;20057;-78
2023/11/16 14:14:50;;;;;;;8.55;5.82;;;;;;;8.52;71.12;99960.56;10416735;28;20175;-79
2023/11/16 14:19:54;;;;;;;29.45;21.05;;;;;;;8.43;72.08;99950.56;10417549;28;20045;-78
2023/11/16 14:24:58;;;;;;;4.20;3.80;;;;;;;8.35;73.19;99948.47;10396968;28;20598;-80
2023/11/16 14:30:01;;;;;;;3.13;1.20;;;;;;;8.27;73.67;99942.88;10409384;28;20068;-78
2023/11/16 14:35:07;;;;;;;3.10;0.93;;;;;;;8.15;73.64;99928.63;10410932;28;20059;-77
2023/11/16 14:40:22;;;;;;;3.17;0.80;;;;;;;8.07;73.42;99923.03;10440004;28;20049;-78
2023/11/16 14:45:25;;;;;;;5.65;1.50;;;;;;;7.95;73.36;99922.19;10414197;28;20562;-79
2023/11/16 14:50:29;;;;;;;5.78;1.67;;;;;;;7.84;73.27;99929.31;10398936;28;20452;-79
2023/11/16 14:55:33;;;;;;;4.30;1.67;;;;;;;7.77;73.90;99933.44;10414828;28;20060;-77
2023/11/16 15:00:37;;;;;;;9.25;1.98;;;;;;;7.67;73.49;99933.28;10413068;28;20062;-77
2023/11/16 15:05:43;;;;;;;5.05;1.88;;;;;;;7.62;73.53;99940.78;10404197;28;20079;-78
2023/11/16 15:10:47;;;;;;;4.20;1.30;;;;;;;7.54;74.23;99945.84;10426162;28;20063;-78
2023/11/16 15:15:50;;;;;;;3.83;1.42;;;;;;;7.47;74.71;99948.16;10409996;28;20497;-78
2023/11/16 15:20:55;;;;;;;7.10;2.42;;;;;;;7.40;75.00;99946.88;10401691;28;20128;-78
2023/11/16 15:25:59;;;;;;;5.10;2.55;;;;;;;7.33;75.42;99961.69;10410279;28;20433;-77
2023/11/16 15:31:02;;;;;;;4.03;1.88;;;;;;;7.24;76.15;99963.19;10412371;28;20048;-78
2023/11/16 15:36:10;;;;;;;4.00;2.03;;;;;;;7.14;75.94;99960.38;10396705;28;20126;-78
2023/11/16 15:41:13;;;;;;;4.80;2.47;;;;;;;7.15;76.36;99963.88;10415861;28;20057;-77
2023/11/16 15:46:17;;;;;;;10.68;3.22;;;;;;;7.12;76.38;99961.44;10423011;28;20115;-78
2023/11/16 15:51:23;;;;;;;10.07;2.88;;;;;;;7.08;76.82;99973.34;10410333;28;20041;-78
2023/11/16 15:56:29;;;;;;;5.45;2.97;;;;;;;7.04;77.37;99968.19;10413331;28;20049;-78
2023/11/16 16:01:32;;;;;;;5.20;2.88;;;;;;;6.98;77.50;99981.16;10404690;28;20053;-78
2023/11/16 16:06:38;;;;;;;8.10;3.10;;;;;;;6.96;77.71;99983.06;10388265;28;20053;-78
2023/11/16 16:11:41;;;;;;;7.00;3.20;;;;;;;6.87;77.56;99987.25;10417828;28;20045;-78
2023/11/16 16:16:44;;;;;;;7.80;2.90;;;;;;;6.85;77.93;99981.13;10430839;28;20075;-78
2023/11/16 16:21:50;;;;;;;8.02;3.38;;;;;;;6.80;77.70;99983.28;10411129;28;20067;-79
2023/11/16 16:26:53;;;;;;;7.18;2.70;;;;;;;6.74;77.61;99983.72;10411422;28;20112;-77
2023/11/16 16:31:56;;;;;;;7.50;3.22;;;;;;;6.74;77.65;99978.38;10426646;28;20044;-80
2023/11/16 16:37:00;;;;;;;5.88;3.05;;;;;;;6.65;77.52;99979.06;10414779;28;20059;-79
2023/11/16 16:42:04;;;;;;;9.02;4.85;;;;;;;6.61;78.03;99971.28;10423702;28;20041;-79
2023/11/16 16:47:08;;;;;;;11.32;6.55;;;;;;;6.59;77.79;99981.19;10419136;28;20056;-79
2023/11/16 16:52:13;;;;;;;11.13;5.78;;;;;;;6.56;77.80;99983.22;10436593;28;20037;-79
2023/11/16 16:57:16;;;;;;;12.80;6.72;;;;;;;6.53;77.70;99984.31;10423057;28;20452;-79
2023/11/16 17:02:19;;;;;;;12.18;7.10;;;;;;;6.51;78.04;99985.38;10413977;28;20057;-79
2023/11/16 17:07:23;;;;;;;20.15;8.85;;;;;;;6.48;78.39;99991.78;10419326;28;20044;-78
2023/11/16 17:12:26;;;;;;;34.88;13.20;;;;;;;6.37;78.63;99999.69;10414531;28;20065;-78
2023/11/16 17:17:29;;;;;;;26.13;9.70;;;;;;;6.27;78.96;100002.13;10412145;28;20057;-79
2023/11/16 17:22:33;;;;;;;22.45;9.68;;;;;;;6.32;79.14;100004.47;10405156;28;20054;-78
2023/11/16 17:27:36;;;;;;;17.50;7.13;;;;;;;6.32;79.22;99999.97;10413855;28;20045;-78
2023/11/16 17:32:40;;;;;;;15.65;7.50;;;;;;;6.35;79.68;100002.44;10394191;28;20059;-79
2023/11/16 17:37:45;;;;;;;15.35;8.15;;;;;;;6.40;79.59;100008.31;10417826;28;20060;-79
2023/11/16 17:42:48;;;;;;;23.20;10.90;;;;;;;6.34;79.70;100010.56;10422563;28;20183;-80
2023/11/16 17:47:52;;;;;;;18.23;8.48;;;;;;;6.23;79.89;100008.63;10426765;28;20060;-79
2023/11/16 17:52:57;;;;;;;18.88;8.70;;;;;;;6.09;80.15;100012.25;10443106;28;20053;-79
2023/11/16 17:58:03;;;;;;;11.13;5.80;;;;;;;5.98;80.77;100016.56;10399476;28;20049;-79
2023/11/16 18:03:06;;;;;;;14.85;5.75;;;;;;;5.87;81.11;100022.63;10396811;28;21335;-79
2023/11/16 18:08:11;;;;;;;15.80;5.57;;;;;;;5.75;81.56;100016.31;10408033;28;20049;-79
2023/11/16 18:13:16;;;;;;;7.25;4.40;;;;;;;5.61;82.25;100022.56;10401401;28;20045;-79
2023/11/16 18:18:20;;;;;;;9.15;4.72;;;;;;;5.54;82.82;100018.63;10395134;28;20049;-80
2023/11/16 18:23:24;;;;;;;10.90;5.25;;;;;;;5.50;83.08;100006.44;10434639;28;20059;-77
2023/11/16 18:28:28;;;;;;;13.20;7.80;;;;;;;5.46;83.60;100018.28;10439326;28;20061;-80
2023/11/16 18:33:31;;;;;;;8.65;5.80;;;;;;;5.41;83.84;100015.91;10413496;28;20052;-79
2023/11/16 18:38:36;;;;;;;9.80;5.15;;;;;;;5.37;84.11;100019.69;10433438;28;20116;-78
2023/11/16 18:43:38;;;;;;;14.88;5.85;;;;;;;5.35;84.67;100013.63;10432478;28;20136;-79
2023/11/16 18:48:42;;;;;;;14.57;6.20;;;;;;;5.28;85.08;100012.31;10420571;28;20052;-79
2023/11/16 18:53:49;;;;;;;14.25;7.10;;;;;;;5.24;85.41;100009.00;10429223;28;20041;-80
2023/11/16 18:58:53;;;;;;;17.55;8.85;;;;;;;5.22;85.56;100005.59;10419676;28;20065;-79
2023/11/16 19:03:56;;;;;;;17.38;9.15;;;;;;;5.17;85.88;99999.69;10400811;28;20055;-79
2023/11/16 19:09:03;;;;;;;14.70;8.38;;;;;;;5.18;86.00;100012.03;10418221;28;20450;-81
2023/11/16 19:14:06;;;;;;;14.70;9.45;;;;;;;5.21;86.21;100005.66;10415809;28;20045;-79
2023/11/16 19:19:10;;;;;;;13.48;9.75;;;;;;;5.27;85.81;100010.63;10443784;28;20042;-79
2023/11/16 19:24:15;;;;;;;13.32;8.65;;;;;;;5.22;85.70;100020.72;10421422;28;20064;-77
2023/11/16 19:29:18;;;;;;;12.10;7.05;;;;;;;5.18;85.40;100013.84;10427726;28;20041;-79
2023/11/16 19:34:22;;;;;;;13.45;7.68;;;;;;;5.17;85.10;100004.16;10441049;28;20607;-79
2023/11/16 19:39:26;;;;;;;11.40;6.80;;;;;;;5.08;84.83;100016.28;10440148;28;20053;-78
2023/11/16 19:44:42;;;;;;;13.90;6.80;;;;;;;4.96;84.62;100020.53;10427933;28;20045;-78
2023/11/16 19:49:45;;;;;;;9.88;6.88;;;;;;;4.82;85.28;100017.88;10421553;28;20150;-79
2023/11/16 19:54:51;;;;;;;11.40;7.10;;;;;;;4.87;85.00;100012.28;10422428;28;20423;-80
2023/11/16 19:59:55;;;;;;;8.93;6.80;;;;;;;4.89;85.35;100015.69;10432632;28;20041;-79
2023/11/16 20:04:59;;;;;;;14.63;7.07;;;;;;;4.91;85.30;100016.44;10430426;28;20059;-78
2023/11/16 20:10:08;;;;;;;16.67;6.43;;;;;;;4.84;84.98;100011.50;10420863;28;20053;-79
2023/11/16 20:15:12;;;;;;;11.60;6.30;;;;;;;4.68;84.68;100020.56;10427643;28;20080;-79
2023/11/16 20:20:23;;;;;;;12.63;6.88;;;;;;;4.67;85.03;100021.53;10423800;28;20049;-79
2023/11/16 20:25:30;;;;;;;9.95;6.65;;;;;;;4.61;84.89;100028.94;10403876;28;20052;-79
2023/11/16 20:30:34;;;;;;;13.77;6.93;;;;;;;4.65;84.81;100031.38;10399516;28;20053;-79
2023/11/16 20:35:37;;;;;;;12.70;6.20;;;;;;;4.53;84.71;100041.84;10427948;28;20098;-80
2023/11/16 20:40:41;;;;;;;9.82;6.40;;;;;;;4.51;84.93;100050.88;10419440;28;20057;-78
2023/11/16 20:45:44;;;;;;;11.90;6.07;;;;;;;4.55;85.17;100047.94;10414545;28;20081;-80
2023/11/16 20:50:47;;;;;;;9.48;5.70;;;;;;;4.46;84.91;100064.44;10420654;28;20056;-78
2023/11/16 20:55:51;;;;;;;14.57;6.13;;;;;;;4.40;85.15;100059.50;10418085;28;20113;-79
2023/11/16 21:00:57;;;;;;;13.93;5.97;;;;;;;4.35;85.44;100053.59;10428196;28;20040;-78
2023/11/16 21:06:00;;;;;;;8.40;5.68;;;;;;;4.29;85.49;100056.63;10424463;28;20110;-79
2023/11/16 21:11:08;;;;;;;9.63;6.53;;;;;;;4.27;85.96;100071.81;10408477;28;20049;-78
2023/11/16 21:16:13;;;;;;;10.20;6.38;;;;;;;4.26;85.85;100081.59;10420388;28;20065;-79
2023/11/16 21:21:16;;;;;;;12.73;5.85;;;;;;;4.20;85.90;100089.06;10394474;28;20049;-79
2023/11/16 21:26:21;;;;;;;9.70;5.85;;;;;;;4.20;85.91;100097.91;10419555;28;20095;-80
2023/11/16 21:31:25;;;;;;;11.32;5.38;;;;;;;4.31;85.54;100099.94;10404468;28;20079;-79
2023/11/16 21:36:28;;;;;;;10.70;5.30;;;;;;;4.14;85.19;100116.88;10423261;28;20076;-78
2023/11/16 21:41:33;;;;;;;10.68;4.40;;;;;;;4.24;85.05;100123.38;10422576;28;20566;-78
2023/11/16 21:46:36;;;;;;;8.68;4.55;;;;;;;4.26;84.55;100123.28;10402759;28;20053;-78
2023/11/16 21:51:40;;;;;;;7.60;4.93;;;;;;;3.95;85.21;100128.59;10418711;28;20857;-78
2023/11/16 21:56:44;;;;;;;8.40;4.65;;;;;;;3.99;84.76;100131.91;10427352;28;20061;-78
2023/11/16 22:01:48;;;;;;;6.15;4.57;;;;;;;4.08;84.94;100127.88;10416910;28;20128;-79
2023/11/16 22:06:52;;;;;;;5.63;4.30;;;;;;;4.25;85.01;100142.81;10428757;28;20060;-78
2023/11/16 22:11:57;;;;;;;7.32;4.05;;;;;;;4.21;84.21;100146.63;10426757;28;20571;-78
2023/11/16 22:17:00;;;;;;;7.78;4.95;;;;;;;3.85;84.66;100155.78;10421450;28;20095;-79
2023/11/16 22:22:03;;;;;;;5.90;4.43;;;;;;;3.65;85.87;100157.75;10419266;28;20132;-78
2023/11/16 22:27:08;;;;;;;7.00;5.20;;;;;;;3.57;86.12;100159.97;10411848;28;20049;-78
2023/11/16 22:32:11;;;;;;;6.63;4.15;;;;;;;3.45;86.67;100168.59;10430370;28;20725;-78
2023/11/16 22:37:14;;;;;;;8.77;4.60;;;;;;;3.47;86.50;100167.59;10415936;28;20056;-78
2023/11/16 22:42:19;;;;;;;8.32;4.50;;;;;;;3.33;86.96;100179.91;10421933;28;20416;-77
2023/11/16 22:47:22;;;;;;;9.98;6.68;;;;;;;3.20;87.11;100192.97;10427477;28;20049;-79
2023/11/16 22:52:24;;;;;;;8.55;5.30;;;;;;;3.08;87.53;100191.00;10407470;28;20051;-78
2023/11/16 22:57:29;;;;;;;11.13;4.75;;;;;;;2.92;88.53;100202.41;10423761;28;21473;-76
2023/11/16 23:02:35;;;;;;;7.15;5.45;;;;;;;2.72;90.13;100210.53;10425391;28;20057;-78
2023/11/16 23:07:38;;;;;;;9.85;4.70;;;;;;;2.77;89.87;100213.78;10410039;28;20132;-78
2023/11/16 23:12:43;;;;;;;9.73;5.72;;;;;;;2.79;89.67;100223.38;10421865;28;20784;-79
2023/11/16 23:17:48;;;;;;;10.45;5.32;;;;;;;2.76;89.95;100220.91;10430091;28;20042;-78
2023/11/16 23:22:51;;;;;;;10.70;5.65;;;;;;;2.75;89.84;100229.81;10424987;28;20541;-78
2023/11/16 23:27:56;;;;;;;7.78;5.45;;;;;;;2.81;90.09;100234.78;10408838;28;20053;-78
2023/11/16 23:32:59;;;;;;;8.05;5.32;;;;;;;2.84;89.91;100228.47;10406458;28;20091;-77